Time;durP1;ratioP1;P1;durP2;ratioP2;P2;SDS_P1;SDS_P2;PMS_P1;PMS_P2;Temp;Humidity;BMP_temperature;BMP_pressure;BME280_temperature;BME280_humidity;BME280_pressure;Samples;Min_cycle;Max_cycle;Signal;HPM_P1;HPM_P2
2022/11/09 00:02:08;;;;;;;14.27;8.82;;;11.70;75.30;;;;;;5126152;27;20417;-56
2022/11/09 00:04:34;;;;;;;12.68;8.65;;;11.70;75.40;;;;;;5130846;27;20051;-55
2022/11/09 00:07:00;;;;;;;13.82;7.93;;;11.70;75.30;;;;;;5135801;27;20023;-56
2022/11/09 00:09:26;;;;;;;12.55;7.90;;;11.70;75.20;;;;;;5135527;27;20122;-55
2022/11/09 00:11:53;;;;;;;13.40;8.07;;;11.80;75.30;;;;;;5135346;27;20107;-57
2022/11/09 00:14:18;;;;;;;11.52;6.72;;;11.80;75.20;;;;;;5134404;27;20023;-55
2022/11/09 00:16:44;;;;;;;12.65;7.43;;;11.80;75.10;;;;;;5133563;27;20136;-57
2022/11/09 00:19:11;;;;;;;9.60;6.93;;;11.80;75.10;;;;;;5122248;27;20043;-55
2022/11/09 00:21:37;;;;;;;12.25;7.55;;;11.80;75.20;;;;;;5134078;27;20042;-56
2022/11/09 00:24:03;;;;;;;11.65;7.28;;;11.80;75.20;;;;;;5135827;27;20039;-55
2022/11/09 00:26:28;;;;;;;12.80;7.55;;;11.80;75.20;;;;;;5126767;27;20031;-57
2022/11/09 00:28:54;;;;;;;14.90;7.55;;;11.80;75.20;;;;;;5130812;27;20027;-56
2022/11/09 00:31:21;;;;;;;12.88;7.95;;;11.80;75.10;;;;;;5133976;27;20102;-56
2022/11/09 00:33:52;;;;;;;12.98;7.82;;;11.80;75.10;;;;;;5124526;27;20023;-56
2022/11/09 00:36:19;;;;;;;9.77;7.38;;;11.80;75.00;;;;;;5135131;27;20466;-56
2022/11/09 00:38:49;;;;;;;13.15;7.50;;;11.80;75.00;;;;;;5135674;27;20027;-57
2022/11/09 00:41:15;;;;;;;11.43;7.25;;;11.80;74.90;;;;;;5133566;27;20054;-57
2022/11/09 00:43:41;;;;;;;11.77;7.60;;;11.80;75.00;;;;;;5134433;27;20370;-56
2022/11/09 00:46:07;;;;;;;11.20;7.32;;;11.80;74.90;;;;;;5134392;27;20091;-56
2022/11/09 00:48:33;;;;;;;15.35;8.18;;;11.80;75.00;;;;;;5134838;27;20076;-55
2022/11/09 00:50:59;;;;;;;13.90;8.20;;;11.80;74.90;;;;;;5119640;27;20027;-56
2022/11/09 00:53:26;;;;;;;11.27;7.25;;;11.80;75.00;;;;;;5129383;27;20026;-57
2022/11/09 00:56:02;;;;;;;12.40;7.63;;;11.80;75.00;;;;;;5134999;27;20127;-57
2022/11/09 00:58:30;;;;;;;15.50;7.60;;;11.80;75.00;;;;;;5133589;27;20016;-57
2022/11/09 01:00:57;;;;;;;11.77;7.57;;;11.80;75.10;;;;;;5125259;27;20046;-55
2022/11/09 01:03:23;;;;;;;13.43;7.47;;;11.80;75.20;;;;;;5128748;27;20027;-57
2022/11/09 01:05:49;;;;;;;10.82;7.00;;;11.80;75.80;;;;;;5133849;27;20120;-56
2022/11/09 01:08:15;;;;;;;11.77;8.07;;;11.70;75.20;;;;;;5132998;27;20027;-57
2022/11/09 01:10:43;;;;;;;11.30;7.05;;;11.70;75.20;;;;;;5128665;27;20049;-57
2022/11/09 01:13:10;;;;;;;10.20;7.13;;;11.80;75.20;;;;;;5134769;27;20023;-57
2022/11/09 01:15:48;;;;;;;11.48;7.80;;;11.80;75.20;;;;;;5133514;27;20588;-56
2022/11/09 01:18:15;;;;;;;12.82;7.93;;;11.80;75.20;;;;;;5131547;27;20039;-57
2022/11/09 01:20:43;;;;;;;12.70;7.85;;;11.80;75.20;;;;;;5133958;27;20027;-55
2022/11/09 01:23:10;;;;;;;12.38;7.82;;;11.80;75.30;;;;;;5122465;27;20026;-57
2022/11/09 01:25:36;;;;;;;13.32;8.23;;;11.80;75.30;;;;;;5126879;27;20028;-57
2022/11/09 01:28:02;;;;;;;15.07;8.85;;;11.70;75.20;;;;;;5135209;27;20110;-55
2022/11/09 01:30:29;;;;;;;13.07;7.80;;;11.80;75.20;;;;;;5134796;27;20034;-56
2022/11/09 01:32:54;;;;;;;14.40;8.45;;;11.70;75.20;;;;;;5134849;27;20031;-57
2022/11/09 01:35:20;;;;;;;13.50;7.95;;;11.70;75.20;;;;;;5134843;27;20031;-55
2022/11/09 01:37:46;;;;;;;12.73;8.10;;;11.70;75.40;;;;;;5135801;27;20431;-57
2022/11/09 01:40:12;;;;;;;13.48;7.90;;;11.60;75.50;;;;;;5135200;27;20072;-57
2022/11/09 01:42:38;;;;;;;11.38;7.45;;;11.70;75.60;;;;;;5135145;27;20080;-57
2022/11/09 01:45:26;;;;;;;11.65;7.53;;;11.60;75.50;;;;;;5121398;27;20031;-56
2022/11/09 01:48:09;;;;;;;16.50;8.60;;;11.70;75.50;;;;;;5133043;27;20019;-56
2022/11/09 01:50:37;;;;;;;12.38;8.90;;;11.70;75.50;;;;;;5120120;27;20110;-57
2022/11/09 01:53:06;;;;;;;14.38;9.50;;;11.60;75.50;;;;;;5134669;27;20019;-57
2022/11/09 01:55:32;;;;;;;14.77;8.57;;;11.60;75.60;;;;;;5134330;27;20476;-56
2022/11/09 01:58:11;;;;;;;15.63;8.88;;;11.60;75.60;;;;;;5130496;27;20031;-56
2022/11/09 02:00:41;;;;;;;13.50;8.00;;;11.60;75.60;;;;;;5128290;27;20034;-57
2022/11/09 02:03:14;;;;;;;16.02;9.50;;;11.60;75.50;;;;;;5134828;27;20038;-55
2022/11/09 02:05:41;;;;;;;14.93;8.98;;;11.60;76.30;;;;;;5135325;27;20113;-56
2022/11/09 02:08:09;;;;;;;15.70;9.25;;;11.60;75.70;;;;;;5132384;27;20038;-57
2022/11/09 02:11:08;;;;;;;14.38;8.77;;;11.60;75.70;;;;;;5133999;27;20051;-56
2022/11/09 02:13:36;;;;;;;13.55;8.20;;;11.60;75.60;;;;;;5115171;28;20099;-56
2022/11/09 02:16:02;;;;;;;13.38;8.50;;;11.60;75.70;;;;;;5129697;27;20369;-57
2022/11/09 02:18:30;;;;;;;12.52;8.65;;;11.60;75.70;;;;;;5133781;28;20108;-55
2022/11/09 02:20:57;;;;;;;12.95;8.10;;;11.60;75.80;;;;;;5134810;27;20090;-56
2022/11/09 02:23:24;;;;;;;11.57;7.47;;;11.60;75.90;;;;;;5135472;27;20419;-55
2022/11/09 02:26:05;;;;;;;14.75;8.55;;;11.60;75.80;;;;;;5135476;27;20025;-56
2022/11/09 02:28:31;;;;;;;15.90;9.18;;;11.60;75.80;;;;;;5134169;27;20486;-56
2022/11/09 02:30:57;;;;;;;12.35;8.48;;;11.50;75.90;;;;;;5138745;27;20035;-55
2022/11/09 02:33:23;;;;;;;14.48;8.32;;;11.60;75.90;;;;;;5137164;27;20019;-56
2022/11/09 02:35:49;;;;;;;14.75;9.02;;;11.50;75.90;;;;;;5133616;27;20022;-57
2022/11/09 02:38:15;;;;;;;14.85;8.55;;;11.60;75.90;;;;;;5133797;27;20110;-57
2022/11/09 02:40:44;;;;;;;15.43;8.57;;;11.60;75.90;;;;;;5138874;27;20052;-56
2022/11/09 02:43:13;;;;;;;13.98;7.75;;;11.60;75.90;;;;;;5139589;27;20055;-54
2022/11/09 02:45:38;;;;;;;13.93;7.10;;;11.60;75.90;;;;;;5139198;27;20027;-57
2022/11/09 02:48:04;;;;;;;14.68;9.13;;;11.60;75.90;;;;;;5136764;27;20039;-56
2022/11/09 02:50:30;;;;;;;13.52;8.50;;;11.60;75.90;;;;;;5136866;27;20453;-57
2022/11/09 02:52:56;;;;;;;16.55;9.95;;;11.60;75.90;;;;;;5138838;27;20031;-57
2022/11/09 02:55:21;;;;;;;15.13;9.45;;;11.60;75.80;;;;;;5138654;27;20019;-55
2022/11/09 02:57:47;;;;;;;14.38;9.30;;;11.60;75.80;;;;;;5124458;27;20031;-56
2022/11/09 03:00:13;;;;;;;14.63;9.20;;;11.70;75.70;;;;;;5137139;27;20039;-56
2022/11/09 03:02:39;;;;;;;13.77;8.32;;;11.70;75.70;;;;;;5137478;27;20030;-57
2022/11/09 03:05:04;;;;;;;11.57;7.72;;;11.70;75.70;;;;;;5139200;27;20027;-56
2022/11/09 03:07:31;;;;;;;12.30;7.97;;;11.70;75.70;;;;;;5134268;27;20034;-57
2022/11/09 03:09:56;;;;;;;13.10;8.68;;;11.70;75.80;;;;;;5138745;27;20134;-56
2022/11/09 03:12:28;;;;;;;15.65;8.57;;;11.70;75.80;;;;;;5138207;27;20054;-56
2022/11/09 03:14:58;;;;;;;14.27;7.70;;;11.70;75.80;;;;;;5135566;27;20485;-57
2022/11/09 03:17:24;;;;;;;13.35;8.63;;;11.70;75.80;;;;;;5136032;27;20063;-57
2022/11/09 03:19:50;;;;;;;12.75;7.03;;;11.60;75.70;;;;;;5139439;27;20078;-57
2022/11/09 03:22:16;;;;;;;13.23;7.75;;;11.70;75.90;;;;;;5139012;27;20054;-57
2022/11/09 03:24:41;;;;;;;13.52;8.05;;;11.60;75.90;;;;;;5139064;27;20019;-57
2022/11/09 03:27:07;;;;;;;12.13;8.20;;;11.70;76.00;;;;;;5132673;27;20031;-57
2022/11/09 03:29:33;;;;;;;12.45;7.97;;;11.70;76.10;;;;;;5138376;27;20045;-57
2022/11/09 03:31:58;;;;;;;12.15;7.72;;;11.70;76.00;;;;;;5137911;27;20055;-56
2022/11/09 03:34:24;;;;;;;14.75;8.75;;;11.70;75.90;;;;;;5138753;27;20035;-56
2022/11/09 03:36:50;;;;;;;13.13;8.35;;;11.70;75.90;;;;;;5132736;27;20057;-55
2022/11/09 03:39:15;;;;;;;17.08;9.15;;;11.70;75.90;;;;;;5130973;27;20371;-56
2022/11/09 03:41:41;;;;;;;12.43;8.32;;;11.70;76.00;;;;;;5138085;27;20306;-57
2022/11/09 03:44:06;;;;;;;11.98;7.80;;;11.70;76.00;;;;;;5139066;27;20038;-57
2022/11/09 03:46:32;;;;;;;12.20;7.90;;;11.70;76.10;;;;;;5127549;27;20386;-57
2022/11/09 03:48:58;;;;;;;12.90;8.65;;;11.70;76.00;;;;;;5137847;27;20034;-56
2022/11/09 03:51:24;;;;;;;13.68;8.82;;;11.60;76.10;;;;;;5137680;27;20020;-57
2022/11/09 03:53:49;;;;;;;12.73;8.00;;;11.70;76.30;;;;;;5138786;27;20022;-56
2022/11/09 03:56:15;;;;;;;14.40;8.45;;;11.70;76.30;;;;;;5127050;27;20032;-58
2022/11/09 03:58:40;;;;;;;16.75;9.38;;;11.70;76.30;;;;;;5138122;27;20042;-56
2022/11/09 04:01:06;;;;;;;15.77;9.68;;;11.70;76.30;;;;;;5138304;27;20541;-55
2022/11/09 04:03:32;;;;;;;14.93;9.45;;;11.70;76.20;;;;;;5138593;27;20367;-56
2022/11/09 04:05:58;;;;;;;14.32;9.20;;;11.70;76.90;;;;;;5132273;27;20140;-56
2022/11/09 04:08:23;;;;;;;14.73;9.77;;;11.70;76.30;;;;;;5136064;27;20091;-56
2022/11/09 04:10:49;;;;;;;14.88;9.57;;;11.70;76.30;;;;;;5136577;27;20077;-56
2022/11/09 04:13:15;;;;;;;13.30;8.55;;;11.70;76.30;;;;;;5138759;27;20390;-57
2022/11/09 04:15:42;;;;;;;14.73;9.23;;;11.70;76.30;;;;;;5132903;27;20016;-56
2022/11/09 04:18:12;;;;;;;12.55;8.25;;;11.60;76.40;;;;;;5132630;27;20051;-56
2022/11/09 04:20:38;;;;;;;12.57;8.63;;;11.60;76.40;;;;;;5126166;27;20401;-56
2022/11/09 04:23:05;;;;;;;16.60;9.95;;;11.60;76.40;;;;;;5128663;27;20023;-56
2022/11/09 04:25:33;;;;;;;14.82;9.57;;;11.60;76.40;;;;;;5137806;27;20382;-55
2022/11/09 04:28:00;;;;;;;15.30;9.40;;;11.70;76.60;;;;;;5135733;27;20477;-56
2022/11/09 04:30:27;;;;;;;16.08;10.45;;;11.70;76.40;;;;;;5138435;27;20019;-55
2022/11/09 04:32:53;;;;;;;16.85;11.25;;;11.60;76.40;;;;;;5139182;27;20026;-55
2022/11/09 04:35:19;;;;;;;19.98;11.07;;;11.60;76.40;;;;;;5137356;27;20080;-55
2022/11/09 04:37:55;;;;;;;14.82;9.70;;;11.70;76.40;;;;;;5136884;27;20416;-56
2022/11/09 04:40:21;;;;;;;15.65;9.40;;;11.70;76.40;;;;;;5138490;27;20040;-55
2022/11/09 04:42:47;;;;;;;16.25;11.13;;;11.70;76.30;;;;;;5137998;27;20019;-56
2022/11/09 04:45:12;;;;;;;14.70;9.90;;;11.70;76.30;;;;;;5134423;27;21449;-56
2022/11/09 04:47:38;;;;;;;19.52;11.73;;;11.70;76.30;;;;;;5131194;27;20035;-56
2022/11/09 04:50:04;;;;;;;14.98;10.05;;;11.60;76.30;;;;;;5134835;27;20027;-57
2022/11/09 04:52:30;;;;;;;15.00;9.75;;;11.70;76.20;;;;;;5128754;27;20389;-56
2022/11/09 04:54:56;;;;;;;15.13;9.15;;;11.70;76.30;;;;;;5136668;27;20026;-56
2022/11/09 04:57:22;;;;;;;16.90;10.38;;;11.70;76.30;;;;;;5126711;27;20076;-55
2022/11/09 04:59:47;;;;;;;15.38;8.68;;;11.70;76.30;;;;;;5131473;27;20486;-54
2022/11/09 05:02:13;;;;;;;16.48;11.02;;;11.70;76.30;;;;;;5118889;28;20024;-56
2022/11/09 05:04:38;;;;;;;15.23;9.50;;;11.70;76.30;;;;;;5126302;27;20031;-57
2022/11/09 05:07:04;;;;;;;18.00;10.50;;;11.70;76.20;;;;;;5136930;27;20436;-55
2022/11/09 05:09:30;;;;;;;16.20;10.75;;;11.70;76.20;;;;;;5137157;27;20015;-56
2022/11/09 05:11:55;;;;;;;20.80;12.60;;;11.80;76.20;;;;;;5136209;27;20072;-57
2022/11/09 05:14:21;;;;;;;18.70;13.02;;;11.70;76.10;;;;;;5136037;27;20041;-56
2022/11/09 05:16:46;;;;;;;19.73;13.05;;;11.70;76.00;;;;;;5135073;27;20015;-56
2022/11/09 05:19:12;;;;;;;19.40;11.98;;;11.80;76.00;;;;;;5138482;27;20043;-56
2022/11/09 05:21:38;;;;;;;17.05;11.02;;;11.70;75.90;;;;;;5127167;27;20042;-57
2022/11/09 05:24:04;;;;;;;19.45;12.05;;;11.70;75.90;;;;;;5136393;27;20375;-57
2022/11/09 05:26:34;;;;;;;15.48;11.10;;;11.70;75.90;;;;;;5129741;27;20050;-57
2022/11/09 05:29:05;;;;;;;17.10;11.02;;;11.70;75.90;;;;;;5136560;27;20039;-56
2022/11/09 05:31:31;;;;;;;15.50;10.38;;;11.70;75.90;;;;;;5138024;27;20076;-56
2022/11/09 05:33:58;;;;;;;18.55;11.93;;;11.70;75.90;;;;;;5136078;27;20023;-55
2022/11/09 05:36:24;;;;;;;17.63;11.07;;;11.70;76.00;;;;;;5136143;27;20016;-55
2022/11/09 05:38:49;;;;;;;14.27;9.50;;;11.70;76.00;;;;;;5131268;27;20467;-56
2022/11/09 05:41:16;;;;;;;17.20;12.18;;;11.70;75.90;;;;;;5137763;27;20034;-57
2022/11/09 05:43:43;;;;;;;18.17;11.43;;;11.70;75.90;;;;;;5137273;27;20019;-57
2022/11/09 05:46:09;;;;;;;18.25;11.75;;;11.70;75.90;;;;;;5136195;27;20062;-56
2022/11/09 05:48:35;;;;;;;21.67;13.00;;;11.70;75.90;;;;;;5127232;27;20024;-57
2022/11/09 05:51:02;;;;;;;20.63;13.52;;;11.70;76.00;;;;;;5137411;27;20056;-56
2022/11/09 05:53:28;;;;;;;19.10;13.15;;;11.70;76.10;;;;;;5134471;27;20474;-56
2022/11/09 05:55:54;;;;;;;16.80;11.23;;;11.70;76.40;;;;;;5137583;27;20420;-56
2022/11/09 05:58:20;;;;;;;19.63;13.40;;;11.60;76.30;;;;;;5127366;27;20023;-57
2022/11/09 06:00:46;;;;;;;18.83;11.40;;;11.60;76.50;;;;;;5136270;27;20079;-56
2022/11/09 06:03:11;;;;;;;22.33;13.98;;;11.70;76.50;;;;;;5135176;27;20061;-55
2022/11/09 06:05:39;;;;;;;19.77;13.60;;;11.70;76.30;;;;;;5133119;27;20028;-55
2022/11/09 06:08:06;;;;;;;20.23;13.45;;;11.70;77.10;;;;;;5131456;27;20105;-56
2022/11/09 06:10:32;;;;;;;19.25;12.57;;;11.70;76.50;;;;;;5128688;27;20034;-57
2022/11/09 06:12:58;;;;;;;20.33;13.10;;;11.70;76.60;;;;;;5136214;28;20470;-56
2022/11/09 06:15:24;;;;;;;15.32;10.57;;;11.60;76.60;;;;;;5136132;28;20020;-56
2022/11/09 06:17:54;;;;;;;14.23;9.57;;;11.70;76.60;;;;;;5135553;27;20047;-57
2022/11/09 06:20:20;;;;;;;14.95;10.07;;;11.70;76.60;;;;;;5135961;27;20041;-56
2022/11/09 06:22:57;;;;;;;17.17;10.23;;;11.70;76.60;;;;;;5138016;27;20023;-57
2022/11/09 06:25:23;;;;;;;17.77;11.25;;;11.80;76.70;;;;;;5137404;27;20069;-56
2022/11/09 06:27:49;;;;;;;17.40;10.75;;;11.80;76.70;;;;;;5136284;27;20068;-56
2022/11/09 06:30:15;;;;;;;17.20;11.40;;;11.80;76.40;;;;;;5138161;27;20031;-57
2022/11/09 06:32:41;;;;;;;19.45;12.10;;;11.80;76.20;;;;;;5136146;28;20436;-57
2022/11/09 06:35:07;;;;;;;17.60;12.25;;;11.80;76.30;;;;;;5126288;28;20027;-57
2022/11/09 06:37:33;;;;;;;21.98;13.75;;;11.80;76.30;;;;;;5134268;27;20414;-57
2022/11/09 06:39:58;;;;;;;18.15;11.38;;;11.80;76.10;;;;;;5136812;27;20065;-57
2022/11/09 06:42:24;;;;;;;15.00;11.32;;;11.80;76.00;;;;;;5136765;28;20035;-56
2022/11/09 06:44:49;;;;;;;15.88;10.63;;;11.70;76.00;;;;;;5138461;28;20034;-56
2022/11/09 06:47:15;;;;;;;17.42;11.10;;;11.70;76.20;;;;;;5127940;27;20036;-56
2022/11/09 06:49:41;;;;;;;16.85;10.70;;;11.70;76.40;;;;;;5129456;28;20034;-56
2022/11/09 06:52:06;;;;;;;15.43;10.07;;;11.80;76.60;;;;;;5135220;28;20045;-56
2022/11/09 06:54:33;;;;;;;16.55;10.27;;;11.70;76.60;;;;;;5134907;27;20090;-56
2022/11/09 06:56:59;;;;;;;15.60;11.07;;;11.80;76.50;;;;;;5129047;27;20027;-56
2022/11/09 06:59:24;;;;;;;18.50;11.23;;;11.90;76.50;;;;;;5123694;27;20023;-57
2022/11/09 07:01:50;;;;;;;14.23;9.75;;;11.90;76.30;;;;;;5122509;27;20038;-57
2022/11/09 07:04:16;;;;;;;15.35;10.07;;;11.90;76.30;;;;;;5128977;27;20034;-57
2022/11/09 07:06:41;;;;;;;12.73;9.07;;;11.90;76.50;;;;;;5126294;27;20371;-57
2022/11/09 07:09:08;;;;;;;15.13;8.65;;;11.90;76.50;;;;;;5122624;27;20031;-57
2022/11/09 07:11:34;;;;;;;13.93;8.68;;;11.90;76.70;;;;;;5116375;27;20015;-56
2022/11/09 07:14:01;;;;;;;14.02;9.02;;;11.90;76.70;;;;;;5124144;27;20027;-56
2022/11/09 07:16:27;;;;;;;13.88;10.07;;;12.00;76.60;;;;;;5129063;27;20109;-57
2022/11/09 07:18:53;;;;;;;16.33;11.52;;;12.00;76.50;;;;;;5129287;27;20379;-57
2022/11/09 07:21:19;;;;;;;14.63;9.43;;;12.00;76.40;;;;;;5122210;27;20084;-56
2022/11/09 07:23:46;;;;;;;14.13;8.88;;;11.90;76.30;;;;;;5132463;27;20062;-57
2022/11/09 07:26:13;;;;;;;16.52;10.45;;;11.90;76.50;;;;;;5120989;27;20051;-57
2022/11/09 07:28:39;;;;;;;14.88;9.98;;;11.90;76.60;;;;;;5110297;27;20413;-57
2022/11/09 07:31:06;;;;;;;18.52;10.90;;;11.80;76.50;;;;;;5119651;27;20096;-57
2022/11/09 07:33:32;;;;;;;17.40;11.80;;;11.80;76.60;;;;;;5119265;27;20033;-57
2022/11/09 07:36:02;;;;;;;15.50;10.00;;;11.80;76.60;;;;;;5124307;27;20019;-57
2022/11/09 07:38:28;;;;;;;18.27;11.40;;;11.60;76.60;;;;;;5118646;27;20034;-56
2022/11/09 07:40:58;;;;;;;15.93;10.32;;;11.60;76.80;;;;;;5123065;27;20071;-57
2022/11/09 07:43:23;;;;;;;13.15;8.90;;;11.60;77.30;;;;;;5119041;27;20097;-56
2022/11/09 07:45:49;;;;;;;19.30;11.35;;;11.50;77.60;;;;;;5120448;27;20482;-56
2022/11/09 07:48:14;;;;;;;15.50;10.27;;;11.50;77.80;;;;;;5124182;27;20031;-56
2022/11/09 07:50:42;;;;;;;15.15;10.00;;;11.50;77.90;;;;;;5118349;27;20382;-57
2022/11/09 07:53:11;;;;;;;14.50;9.70;;;11.50;78.20;;;;;;5123502;27;20028;-56
2022/11/09 07:55:36;;;;;;;17.27;10.45;;;11.50;78.20;;;;;;5124450;27;20084;-56
2022/11/09 07:58:05;;;;;;;17.38;10.68;;;11.60;78.10;;;;;;5114906;27;20028;-56
2022/11/09 08:00:32;;;;;;;14.55;9.88;;;11.60;78.20;;;;;;5111568;27;20024;-57
2022/11/09 08:02:58;;;;;;;14.63;9.82;;;11.60;78.30;;;;;;5115294;27;20122;-55
2022/11/09 08:05:24;;;;;;;18.67;11.52;;;11.60;78.30;;;;;;5118388;27;20465;-56
2022/11/09 08:07:59;;;;;;;16.45;11.38;;;11.60;78.00;;;;;;5112717;27;20030;-57
2022/11/09 08:10:27;;;;;;;16.30;11.20;;;11.60;77.90;;;;;;5116905;27;20027;-58
2022/11/09 08:13:01;;;;;;;15.95;10.07;;;11.60;78.00;;;;;;5113295;27;20501;-58
2022/11/09 08:15:28;;;;;;;14.30;9.40;;;11.60;78.20;;;;;;5112873;27;20567;-58
2022/11/09 08:18:00;;;;;;;16.15;9.75;;;11.60;78.30;;;;;;5109106;27;20055;-58
2022/11/09 08:20:28;;;;;;;17.52;10.80;;;11.60;78.30;;;;;;5126161;27;20065;-57
2022/11/09 08:22:54;;;;;;;15.32;9.98;;;11.70;78.40;;;;;;5107983;27;20483;-57
2022/11/09 08:25:21;;;;;;;16.20;10.82;;;11.70;78.40;;;;;;5112041;27;20103;-56
2022/11/09 08:27:47;;;;;;;20.10;11.27;;;11.80;78.40;;;;;;5105860;27;20063;-57
2022/11/09 08:30:18;;;;;;;19.38;12.25;;;11.80;78.20;;;;;;5101121;27;20774;-57
2022/11/09 08:32:44;;;;;;;;;;;11.80;78.10;;;;;;5106886;27;20011;-56
2022/11/09 08:35:15;;;;;;;18.65;10.43;;;11.90;78.10;;;;;;5108799;27;19964;-57
2022/11/09 08:37:41;;;;;;;;;;;11.90;77.90;;;;;;5100823;27;20109;-57
2022/11/09 08:40:08;;;;;;;16.27;9.68;;;11.80;77.90;;;;;;5101746;27;19911;-57
2022/11/09 08:42:33;;;;;;;21.23;11.70;;;11.90;77.90;;;;;;5103712;27;20136;-57
2022/11/09 08:44:59;;;;;;;22.20;13.27;;;11.90;78.00;;;;;;5104468;27;20478;-57
2022/11/09 08:47:24;;;;;;;18.50;11.77;;;11.90;78.00;;;;;;5104221;27;20027;-57
2022/11/09 08:49:50;;;;;;;18.50;10.98;;;11.90;78.70;;;;;;5104511;27;20031;-58
2022/11/09 08:52:16;;;;;;;22.60;12.55;;;11.90;78.10;;;;;;5100458;27;20030;-55
2022/11/09 08:54:42;;;;;;;19.30;11.88;;;12.00;78.20;;;;;;5101194;27;20125;-57
2022/11/09 08:57:08;;;;;;;19.05;11.90;;;12.00;78.10;;;;;;5098999;27;20024;-58
2022/11/09 08:59:34;;;;;;;17.77;11.05;;;12.00;78.10;;;;;;5098970;27;20031;-58
2022/11/09 09:01:59;;;;;;;19.95;11.55;;;12.00;78.00;;;;;;5086461;27;20670;-57
2022/11/09 09:04:25;;;;;;;20.52;10.95;;;12.00;78.00;;;;;;5104693;27;20035;-57
2022/11/09 09:06:52;;;;;;;17.10;11.07;;;12.10;78.00;;;;;;5103616;27;20038;-58
2022/11/09 09:09:18;;;;;;;16.92;10.98;;;12.10;77.90;;;;;;5101738;27;20088;-57
2022/11/09 09:11:43;;;;;;;16.25;10.52;;;12.10;77.90;;;;;;5099369;27;20178;-57
2022/11/09 09:14:09;;;;;;;20.70;11.98;;;12.20;77.90;;;;;;5097560;27;20068;-58
2022/11/09 09:16:34;;;;;;;18.60;11.57;;;12.20;77.80;;;;;;5089837;27;20767;-58
2022/11/09 09:19:00;;;;;;;18.83;11.00;;;12.20;77.70;;;;;;5104536;27;20183;-56
2022/11/09 09:21:26;;;;;;;15.00;9.40;;;12.30;77.70;;;;;;5093140;27;20053;-57
2022/11/09 09:23:51;;;;;;;19.35;10.52;;;12.30;77.70;;;;;;5089975;27;20126;-56
2022/11/09 09:26:17;;;;;;;19.55;11.38;;;12.30;77.80;;;;;;5093808;27;20027;-56
2022/11/09 09:28:43;;;;;;;17.90;10.75;;;12.30;77.70;;;;;;5093988;27;20089;-58
2022/11/09 09:31:09;;;;;;;18.63;11.93;;;12.30;77.70;;;;;;5090898;27;20474;-57
2022/11/09 09:33:35;;;;;;;19.33;11.43;;;12.30;77.60;;;;;;5080367;27;20490;-56
2022/11/09 09:36:01;;;;;;;20.02;12.13;;;12.30;77.50;;;;;;5091779;27;20034;-55
2022/11/09 09:38:27;;;;;;;18.67;11.23;;;12.30;77.50;;;;;;5100700;27;20028;-57
2022/11/09 09:41:01;;;;;;;17.23;10.85;;;12.20;77.50;;;;;;5091803;27;20046;-56
2022/11/09 09:43:39;;;;;;;14.93;9.23;;;12.20;77.70;;;;;;5094237;27;20038;-57
2022/11/09 09:46:13;;;;;;;14.95;9.38;;;12.10;78.40;;;;;;5095296;27;20840;-58
2022/11/09 09:48:45;;;;;;;23.50;12.95;;;12.10;77.90;;;;;;5092434;27;20670;-57
2022/11/09 09:51:24;;;;;;;17.48;10.77;;;12.10;78.10;;;;;;5083352;27;20027;-56
2022/11/09 09:54:02;;;;;;;19.75;10.88;;;12.10;78.20;;;;;;5084453;27;20068;-56
2022/11/09 09:56:32;;;;;;;18.02;10.13;;;12.10;78.20;;;;;;5081504;27;20027;-56
2022/11/09 09:59:06;;;;;;;16.80;10.20;;;12.10;78.30;;;;;;5083811;27;20022;-56
2022/11/09 10:01:40;;;;;;;14.77;9.70;;;12.10;78.40;;;;;;5064885;27;20084;-58
2022/11/09 10:04:23;;;;;;;19.95;11.00;;;12.10;78.40;;;;;;5077069;27;20917;-58
2022/11/09 10:06:58;;;;;;;16.55;10.38;;;12.10;78.40;;;;;;5081801;27;20035;-57
2022/11/09 12:09:28;;;;;;;12.90;7.30;;;11.10;78.40;;;;;;5058250;27;20555;-56
2022/11/09 12:12:19;;;;;;;13.18;8.32;;;11.10;77.40;;;;;;5063574;28;20028;-56
2022/11/09 12:15:24;;;;;;;16.20;9.57;;;11.20;78.70;;;;;;5065946;28;20526;-57
2022/11/09 12:17:55;;;;;;;18.05;10.77;;;11.30;79.70;;;;;;5065340;28;20049;-56
2022/11/09 12:20:54;;;;;;;18.25;10.98;;;11.40;80.40;;;;;;5075983;28;20051;-57
2022/11/09 12:23:35;;;;;;;18.27;10.93;;;11.50;80.90;;;;;;5060313;28;20056;-57
2022/11/09 12:26:19;;;;;;;13.68;9.27;;;11.60;81.10;;;;;;5062620;28;20020;-57
2022/11/09 12:29:06;;;;;;;14.20;9.05;;;11.70;81.30;;;;;;5053300;28;20044;-57
2022/11/09 12:32:03;;;;;;;17.95;10.20;;;11.70;81.50;;;;;;5074105;28;20031;-57
2022/11/09 12:34:47;;;;;;;17.17;10.93;;;11.80;81.50;;;;;;5051611;28;20933;-57
2022/11/09 12:37:19;;;;;;;18.98;11.25;;;11.90;81.70;;;;;;5052126;28;20039;-58
2022/11/09 12:39:52;;;;;;;;;;;12.00;81.60;;;;;;5041497;28;20040;-57
2022/11/09 12:42:27;;;;;;;21.67;12.52;;;12.00;81.20;;;;;;5041092;28;19959;-57
2022/11/09 12:45:22;;;;;;;19.88;10.98;;;12.10;81.30;;;;;;5052661;28;20617;-58
2022/11/09 12:47:48;;;;;;;15.23;10.57;;;12.10;81.00;;;;;;5051565;28;20167;-58
2022/11/09 12:50:17;;;;;;;21.23;13.10;;;12.10;81.20;;;;;;5056094;28;20042;-58
2022/11/09 12:52:46;;;;;;;19.48;11.90;;;12.10;81.40;;;;;;5052131;28;20107;-57
2022/11/09 12:55:21;;;;;;;17.00;10.77;;;12.10;81.30;;;;;;5053835;28;20031;-57
2022/11/09 12:57:47;;;;;;;15.85;9.60;;;12.10;81.40;;;;;;5058286;28;20050;-58
2022/11/09 13:00:35;;;;;;;19.45;11.35;;;12.20;81.60;;;;;;5054545;28;20124;-58
2022/11/09 13:03:06;;;;;;;22.73;13.32;;;12.20;81.40;;;;;;5047210;28;20024;-57
2022/11/09 13:05:37;;;;;;;22.23;12.80;;;12.20;81.50;;;;;;5051830;28;20024;-57
2022/11/09 13:08:05;;;;;;;20.80;12.27;;;12.20;81.30;;;;;;5050324;28;20721;-58
2022/11/09 13:10:38;;;;;;;18.40;11.35;;;12.20;81.20;;;;;;5056894;28;20376;-57
2022/11/09 13:13:06;;;;;;;19.48;12.35;;;12.20;81.20;;;;;;5060511;28;20028;-57
2022/11/09 13:15:34;;;;;;;20.73;12.88;;;12.20;81.20;;;;;;5060912;28;20924;-58
2022/11/09 13:18:19;;;;;;;19.35;11.80;;;12.20;81.30;;;;;;5056160;28;20033;-56
2022/11/09 13:20:46;;;;;;;15.15;9.98;;;12.10;81.30;;;;;;5048242;28;20031;-56
2022/11/09 13:23:27;;;;;;;18.48;11.32;;;12.20;81.50;;;;;;5045070;28;20033;-57
2022/11/09 13:25:53;;;;;;;16.08;10.50;;;12.20;81.50;;;;;;5044053;28;20043;-58
2022/11/09 13:28:42;;;;;;;22.02;13.60;;;12.10;81.50;;;;;;5043042;28;20561;-55
2022/11/09 13:31:09;;;;;;;18.77;12.95;;;12.10;81.30;;;;;;5053558;28;20044;-58
2022/11/09 13:33:38;;;;;;;18.85;11.25;;;12.10;81.30;;;;;;5048723;28;20108;-58
2022/11/09 13:36:06;;;;;;;16.98;10.75;;;12.10;81.50;;;;;;5050339;28;20037;-57
2022/11/09 13:38:33;;;;;;;17.52;11.32;;;12.10;81.60;;;;;;5042380;28;20028;-58
2022/11/09 13:41:03;;;;;;;15.50;10.60;;;12.10;81.60;;;;;;5040537;28;20029;-57
2022/11/09 13:43:38;;;;;;;19.17;12.48;;;12.10;81.60;;;;;;5035419;28;20655;-57
2022/11/09 13:46:23;;;;;;;20.42;12.13;;;12.10;81.50;;;;;;5041597;28;20033;-55
2022/11/09 13:48:52;;;;;;;20.55;12.40;;;12.10;81.30;;;;;;5044135;28;20523;-56
2022/11/09 13:51:37;;;;;;;17.90;11.15;;;12.00;81.50;;;;;;5037359;28;20025;-58
2022/11/09 13:54:21;;;;;;;20.13;11.45;;;12.00;81.50;;;;;;5038978;28;22398;-58
2022/11/09 13:56:47;;;;;;;18.42;11.55;;;12.00;81.60;;;;;;5033941;28;20021;-57
2022/11/09 13:59:30;;;;;;;19.95;12.05;;;12.00;81.60;;;;;;5041628;28;20090;-57
2022/11/09 14:01:57;;;;;;;20.38;11.98;;;12.00;81.60;;;;;;5034938;28;20051;-57
2022/11/09 14:04:26;;;;;;;17.65;11.52;;;12.00;81.80;;;;;;5042309;28;20040;-56
2022/11/09 14:07:26;;;;;;;21.60;12.35;;;11.90;81.80;;;;;;5049422;28;20545;-57
2022/11/09 14:10:17;;;;;;;17.50;11.52;;;11.90;81.60;;;;;;5043857;28;21563;-57
2022/11/09 14:13:01;;;;;;;;;;;11.90;81.60;;;;;;5050907;28;20095;-58
2022/11/09 14:15:36;;;;;;;14.93;10.18;;;11.90;81.70;;;;;;5044707;28;19923;-57
2022/11/09 14:18:32;;;;;;;14.95;9.70;;;11.90;81.70;;;;;;5040621;28;20055;-59
2022/11/09 14:21:07;;;;;;;18.75;11.98;;;11.80;81.90;;;;;;5044407;28;20102;-56
2022/11/09 14:23:33;;;;;;;17.17;11.70;;;11.80;82.00;;;;;;5044763;28;20043;-57
2022/11/09 14:26:07;;;;;;;19.17;11.50;;;11.80;82.10;;;;;;5040860;28;22237;-57
2022/11/09 14:28:34;;;;;;;19.40;11.43;;;11.80;82.10;;;;;;5036099;28;20068;-57
2022/11/09 14:31:00;;;;;;;18.85;12.57;;;11.80;82.00;;;;;;5040046;28;20056;-56
2022/11/09 14:33:29;;;;;;;19.48;12.05;;;11.80;82.20;;;;;;5042500;28;20025;-57
2022/11/09 14:35:58;;;;;;;16.52;10.07;;;11.70;82.30;;;;;;5041785;28;20044;-56
2022/11/09 14:38:46;;;;;;;16.92;10.27;;;11.70;82.30;;;;;;5042469;28;20036;-57
2022/11/09 14:41:26;;;;;;;18.75;11.60;;;11.70;82.40;;;;;;5054199;28;20039;-57
2022/11/09 14:43:54;;;;;;;17.25;10.52;;;11.70;82.40;;;;;;5049238;28;20115;-56